sensor_id;sensor_type;location;lat;lon;timestamp;pressure;altitude;pressure_sealevel;temperature;humidity
60099;BME280;62818;49.394;8.686;2023-02-26T00:00:32;100091.50;;;1.64;67.10
60099;BME280;62818;49.394;8.686;2023-02-26T00:01:34;100080.31;;;1.73;66.82
60099;BME280;62818;49.394;8.686;2023-02-26T00:02:36;100083.06;;;1.72;66.35
60099;BME280;62818;49.394;8.686;2023-02-26T00:03:37;100086.97;;;2.07;66.28
60099;BME280;62818;49.394;8.686;2023-02-26T00:04:38;100080.88;;;1.24;66.52
60099;BME280;62818;49.394;8.686;2023-02-26T00:05:38;100084.50;;;1.01;68.13
60099;BME280;62818;49.394;8.686;2023-02-26T00:06:40;100074.94;;;1.22;67.92
60099;BME280;62818;49.394;8.686;2023-02-26T00:07:51;100080.69;;;1.69;67.37
60099;BME280;62818;49.394;8.686;2023-02-26T00:08:53;100087.25;;;2.04;66.67
60099;BME280;62818;49.394;8.686;2023-02-26T00:09:54;100086.88;;;1.36;65.82
60099;BME280;62818;49.394;8.686;2023-02-26T00:10:55;100084.06;;;1.60;66.13
60099;BME280;62818;49.394;8.686;2023-02-26T00:11:58;100078.00;;;1.80;66.11
60099;BME280;62818;49.394;8.686;2023-02-26T00:12:59;100088.38;;;1.49;66.36
60099;BME280;62818;49.394;8.686;2023-02-26T00:14:00;100084.47;;;1.76;65.96
60099;BME280;62818;49.394;8.686;2023-02-26T00:15:01;100088.06;;;1.64;65.39
60099;BME280;62818;49.394;8.686;2023-02-26T00:16:08;100086.09;;;1.77;64.72
60099;BME280;62818;49.394;8.686;2023-02-26T00:17:31;100088.19;;;1.30;67.13
60099;BME280;62818;49.394;8.686;2023-02-26T00:18:38;100086.19;;;1.55;66.74
60099;BME280;62818;49.394;8.686;2023-02-26T00:19:39;100088.47;;;1.48;66.23
60099;BME280;62818;49.394;8.686;2023-02-26T00:20:40;100085.63;;;1.83;65.95
60099;BME280;62818;49.394;8.686;2023-02-26T00:21:44;100088.00;;;1.75;64.85
60099;BME280;62818;49.394;8.686;2023-02-26T00:22:45;100092.50;;;1.52;65.78
60099;BME280;62818;49.394;8.686;2023-02-26T00:23:46;100087.19;;;1.95;65.81
60099;BME280;62818;49.394;8.686;2023-02-26T00:24:47;100094.72;;;2.09;65.01
60099;BME280;62818;49.394;8.686;2023-02-26T00:25:47;100097.81;;;1.62;65.09
60099;BME280;62818;49.394;8.686;2023-02-26T00:26:48;100090.81;;;1.30;66.41
60099;BME280;62818;49.394;8.686;2023-02-26T00:27:48;100098.44;;;1.22;66.42
60099;BME280;62818;49.394;8.686;2023-02-26T00:28:50;100097.31;;;1.68;65.62
60099;BME280;62818;49.394;8.686;2023-02-26T00:29:51;100098.88;;;1.59;65.54
60099;BME280;62818;49.394;8.686;2023-02-26T00:30:52;100094.63;;;1.79;64.32
60099;BME280;62818;49.394;8.686;2023-02-26T00:31:52;100098.81;;;1.18;65.50
60099;BME280;62818;49.394;8.686;2023-02-26T00:32:53;100100.81;;;1.25;65.76
60099;BME280;62818;49.394;8.686;2023-02-26T00:33:55;100098.84;;;0.96;66.57
60099;BME280;62818;49.394;8.686;2023-02-26T00:34:57;100100.31;;;1.31;67.95
60099;BME280;62818;49.394;8.686;2023-02-26T00:36:28;100102.94;;;1.20;67.13
60099;BME280;62818;49.394;8.686;2023-02-26T00:40:49;100104.94;;;1.60;64.75
60099;BME280;62818;49.394;8.686;2023-02-26T00:41:52;100107.91;;;1.87;64.70
60099;BME280;62818;49.394;8.686;2023-02-26T00:42:53;100109.00;;;1.52;64.57
60099;BME280;62818;49.394;8.686;2023-02-26T00:43:54;100108.50;;;1.27;65.52
60099;BME280;62818;49.394;8.686;2023-02-26T00:44:55;100108.19;;;1.20;66.00
60099;BME280;62818;49.394;8.686;2023-02-26T00:46:14;100106.81;;;1.69;65.77
60099;BME280;62818;49.394;8.686;2023-02-26T00:47:41;100105.78;;;1.81;64.24
60099;BME280;62818;49.394;8.686;2023-02-26T00:51:51;100106.34;;;1.64;64.79
60099;BME280;62818;49.394;8.686;2023-02-26T00:54:27;100109.47;;;1.15;65.78
60099;BME280;62818;49.394;8.686;2023-02-26T00:55:29;100107.34;;;1.20;66.59
60099;BME280;62818;49.394;8.686;2023-02-26T00:56:30;100110.44;;;1.77;65.88
60099;BME280;62818;49.394;8.686;2023-02-26T00:57:31;100111.97;;;1.27;65.50
60099;BME280;62818;49.394;8.686;2023-02-26T00:58:31;100103.44;;;1.14;66.87
60099;BME280;62818;49.394;8.686;2023-02-26T00:59:32;100111.66;;;0.99;66.25
60099;BME280;62818;49.394;8.686;2023-02-26T01:00:32;100111.66;;;1.41;66.75
60099;BME280;62818;49.394;8.686;2023-02-26T01:01:33;100113.88;;;1.14;66.98
60099;BME280;62818;49.394;8.686;2023-02-26T01:02:38;100110.84;;;1.41;66.09
60099;BME280;62818;49.394;8.686;2023-02-26T01:03:39;100102.03;;;1.42;67.12
60099;BME280;62818;49.394;8.686;2023-02-26T01:04:40;100115.25;;;1.40;67.25
60099;BME280;62818;49.394;8.686;2023-02-26T01:05:41;100103.78;;;1.52;66.70
60099;BME280;62818;49.394;8.686;2023-02-26T01:06:45;100101.16;;;1.32;66.56
60099;BME280;62818;49.394;8.686;2023-02-26T01:08:23;100110.13;;;0.96;67.59
60099;BME280;62818;49.394;8.686;2023-02-26T01:09:32;100107.66;;;0.72;67.47
60099;BME280;62818;49.394;8.686;2023-02-26T01:10:35;100102.09;;;0.77;68.22
60099;BME280;62818;49.394;8.686;2023-02-26T01:11:36;100103.03;;;0.76;68.00
60099;BME280;62818;49.394;8.686;2023-02-26T01:12:37;100111.09;;;0.62;68.01
60099;BME280;62818;49.394;8.686;2023-02-26T01:13:38;100100.19;;;0.68;67.85
60099;BME280;62818;49.394;8.686;2023-02-26T01:14:39;100109.66;;;0.80;67.52
60099;BME280;62818;49.394;8.686;2023-02-26T01:15:43;100107.06;;;0.69;68.01
60099;BME280;62818;49.394;8.686;2023-02-26T01:18:30;100102.53;;;0.82;67.96
60099;BME280;62818;49.394;8.686;2023-02-26T01:21:31;100105.88;;;0.73;68.20
60099;BME280;62818;49.394;8.686;2023-02-26T01:22:54;100104.94;;;0.63;68.47
60099;BME280;62818;49.394;8.686;2023-02-26T01:24:04;100104.44;;;0.69;68.52
60099;BME280;62818;49.394;8.686;2023-02-26T01:25:23;100103.84;;;0.88;69.56
60099;BME280;62818;49.394;8.686;2023-02-26T01:26:28;100105.59;;;1.09;69.23
60099;BME280;62818;49.394;8.686;2023-02-26T01:27:29;100099.91;;;0.93;68.57
60099;BME280;62818;49.394;8.686;2023-02-26T01:28:29;100099.13;;;1.24;67.49
60099;BME280;62818;49.394;8.686;2023-02-26T01:29:31;100102.28;;;0.96;67.34
60099;BME280;62818;49.394;8.686;2023-02-26T01:30:32;100104.88;;;1.07;67.25
60099;BME280;62818;49.394;8.686;2023-02-26T01:34:38;100103.53;;;0.70;68.48
60099;BME280;62818;49.394;8.686;2023-02-26T01:35:42;100095.44;;;0.73;68.74
60099;BME280;62818;49.394;8.686;2023-02-26T01:36:59;100097.13;;;0.63;69.23
60099;BME280;62818;49.394;8.686;2023-02-26T01:41:47;100107.06;;;0.69;69.17
60099;BME280;62818;49.394;8.686;2023-02-26T01:42:53;100103.53;;;0.70;69.25
60099;BME280;62818;49.394;8.686;2023-02-26T01:45:29;100099.22;;;0.80;69.15
60099;BME280;62818;49.394;8.686;2023-02-26T01:48:57;100102.44;;;0.72;70.45
60099;BME280;62818;49.394;8.686;2023-02-26T01:50:08;100092.38;;;0.79;70.43
60099;BME280;62818;49.394;8.686;2023-02-26T01:51:13;100100.19;;;0.90;69.64
60099;BME280;62818;49.394;8.686;2023-02-26T01:53:48;100097.59;;;0.79;69.95
60099;BME280;62818;49.394;8.686;2023-02-26T01:54:48;100098.53;;;0.67;70.28
60099;BME280;62818;49.394;8.686;2023-02-26T01:55:55;100099.25;;;0.58;70.64
60099;BME280;62818;49.394;8.686;2023-02-26T01:57:17;100102.81;;;0.57;71.31
60099;BME280;62818;49.394;8.686;2023-02-26T01:58:21;100101.13;;;0.78;71.30
60099;BME280;62818;49.394;8.686;2023-02-26T01:59:25;100097.13;;;0.52;72.31
60099;BME280;62818;49.394;8.686;2023-02-26T02:00:26;100096.41;;;0.39;72.97
60099;BME280;62818;49.394;8.686;2023-02-26T02:01:26;100097.47;;;0.58;73.61
60099;BME280;62818;49.394;8.686;2023-02-26T02:02:27;100093.53;;;0.75;73.03
60099;BME280;62818;49.394;8.686;2023-02-26T02:03:31;100090.25;;;1.16;71.74
60099;BME280;62818;49.394;8.686;2023-02-26T02:04:35;100091.41;;;0.80;70.18
60099;BME280;62818;49.394;8.686;2023-02-26T02:05:42;100082.16;;;0.87;71.03
60099;BME280;62818;49.394;8.686;2023-02-26T02:06:46;100094.84;;;0.81;71.00
60099;BME280;62818;49.394;8.686;2023-02-26T02:07:47;100095.22;;;0.54;72.04
60099;BME280;62818;49.394;8.686;2023-02-26T02:08:47;100096.88;;;0.66;71.16
60099;BME280;62818;49.394;8.686;2023-02-26T02:09:48;100093.31;;;0.67;71.32
60099;BME280;62818;49.394;8.686;2023-02-26T02:10:50;100104.47;;;0.58;71.45
60099;BME280;62818;49.394;8.686;2023-02-26T02:13:58;100098.81;;;1.18;71.30
60099;BME280;62818;49.394;8.686;2023-02-26T02:18:16;100096.41;;;0.61;71.20
60099;BME280;62818;49.394;8.686;2023-02-26T02:19:50;100103.72;;;0.78;71.23
60099;BME280;62818;49.394;8.686;2023-02-26T02:27:46;100109.91;;;0.44;73.03
60099;BME280;62818;49.394;8.686;2023-02-26T02:31:59;100125.44;;;0.45;74.56
60099;BME280;62818;49.394;8.686;2023-02-26T02:33:14;100118.91;;;0.62;74.17
60099;BME280;62818;49.394;8.686;2023-02-26T02:35:56;100116.69;;;0.35;76.13
60099;BME280;62818;49.394;8.686;2023-02-26T02:37:15;100109.44;;;0.72;75.44
60099;BME280;62818;49.394;8.686;2023-02-26T02:39:48;100119.38;;;0.78;73.89
60099;BME280;62818;49.394;8.686;2023-02-26T02:41:01;100123.06;;;0.42;75.58
60099;BME280;62818;49.394;8.686;2023-02-26T02:43:18;100117.97;;;0.52;74.22
60099;BME280;62818;49.394;8.686;2023-02-26T02:44:24;100125.66;;;0.42;74.96
60099;BME280;62818;49.394;8.686;2023-02-26T02:45:35;100117.09;;;0.18;76.68
60099;BME280;62818;49.394;8.686;2023-02-26T02:46:42;100125.91;;;-0.18;78.05
60099;BME280;62818;49.394;8.686;2023-02-26T02:47:51;100118.69;;;0.54;76.70
60099;BME280;62818;49.394;8.686;2023-02-26T02:49:03;100121.97;;;0.34;76.13
60099;BME280;62818;49.394;8.686;2023-02-26T02:50:11;100124.47;;;0.13;76.42
60099;BME280;62818;49.394;8.686;2023-02-26T02:54:10;100134.19;;;0.89;74.78
60099;BME280;62818;49.394;8.686;2023-02-26T02:55:19;100134.34;;;0.76;74.17
60099;BME280;62818;49.394;8.686;2023-02-26T02:56:30;100133.41;;;0.66;73.96
60099;BME280;62818;49.394;8.686;2023-02-26T02:57:48;100133.84;;;0.38;75.31
60099;BME280;62818;49.394;8.686;2023-02-26T02:59:16;100135.31;;;0.07;78.13
60099;BME280;62818;49.394;8.686;2023-02-26T03:00:22;100137.75;;;0.32;76.47
60099;BME280;62818;49.394;8.686;2023-02-26T03:01:26;100139.94;;;0.04;77.68
60099;BME280;62818;49.394;8.686;2023-02-26T03:02:38;100137.94;;;0.07;77.75
60099;BME280;62818;49.394;8.686;2023-02-26T03:03:56;100145.72;;;-0.04;78.61
60099;BME280;62818;49.394;8.686;2023-02-26T03:05:01;100143.28;;;-0.29;80.01
60099;BME280;62818;49.394;8.686;2023-02-26T03:06:01;100137.25;;;0.27;79.60
60099;BME280;62818;49.394;8.686;2023-02-26T03:07:03;100139.66;;;0.41;78.64
60099;BME280;62818;49.394;8.686;2023-02-26T03:08:12;100144.84;;;0.19;77.87
60099;BME280;62818;49.394;8.686;2023-02-26T03:09:17;100148.16;;;-0.25;79.27
60099;BME280;62818;49.394;8.686;2023-02-26T03:10:18;100145.44;;;-0.23;80.15
60099;BME280;62818;49.394;8.686;2023-02-26T03:11:19;100144.72;;;0.32;79.52
60099;BME280;62818;49.394;8.686;2023-02-26T03:12:21;100150.84;;;-0.03;79.64
60099;BME280;62818;49.394;8.686;2023-02-26T03:13:24;100150.63;;;0.23;78.79
60099;BME280;62818;49.394;8.686;2023-02-26T03:14:25;100146.25;;;-0.23;80.05
60099;BME280;62818;49.394;8.686;2023-02-26T03:15:50;100148.38;;;-0.28;81.86
60099;BME280;62818;49.394;8.686;2023-02-26T03:18:51;100140.00;;;0.26;80.05
60099;BME280;62818;49.394;8.686;2023-02-26T03:20:11;100147.94;;;0.24;80.70
60099;BME280;62818;49.394;8.686;2023-02-26T03:23:08;100150.19;;;0.51;78.59
60099;BME280;62818;49.394;8.686;2023-02-26T03:24:50;100157.41;;;-0.21;80.14
60099;BME280;62818;49.394;8.686;2023-02-26T03:26:02;100156.31;;;0.17;80.89
60099;BME280;62818;49.394;8.686;2023-02-26T03:27:51;100152.81;;;0.62;78.75
60099;BME280;62818;49.394;8.686;2023-02-26T03:29:07;100160.56;;;0.07;80.08
60099;BME280;62818;49.394;8.686;2023-02-26T03:30:32;100162.97;;;0.21;79.35
60099;BME280;62818;49.394;8.686;2023-02-26T03:34:49;100162.44;;;0.05;79.31
60099;BME280;62818;49.394;8.686;2023-02-26T03:36:06;100168.22;;;-0.03;79.53
60099;BME280;62818;49.394;8.686;2023-02-26T03:37:27;100167.31;;;0.66;79.08
60099;BME280;62818;49.394;8.686;2023-02-26T03:38:48;100176.47;;;0.15;78.32
60099;BME280;62818;49.394;8.686;2023-02-26T03:40:08;100174.78;;;0.14;78.84
60099;BME280;62818;49.394;8.686;2023-02-26T03:42:56;100169.97;;;0.31;81.52
60099;BME280;62818;49.394;8.686;2023-02-26T03:44:08;100177.16;;;0.17;80.81
60099;BME280;62818;49.394;8.686;2023-02-26T03:45:26;100184.88;;;-0.17;81.40
60099;BME280;62818;49.394;8.686;2023-02-26T03:46:44;100176.06;;;-0.50;83.17
60099;BME280;62818;49.394;8.686;2023-02-26T03:47:51;100184.31;;;-0.33;83.27
60099;BME280;62818;49.394;8.686;2023-02-26T03:48:56;100179.34;;;-0.36;83.27
60099;BME280;62818;49.394;8.686;2023-02-26T03:51:11;100183.28;;;0.05;83.15
60099;BME280;62818;49.394;8.686;2023-02-26T03:52:14;100175.09;;;0.33;81.26
60099;BME280;62818;49.394;8.686;2023-02-26T03:53:20;100178.81;;;-0.17;81.97
60099;BME280;62818;49.394;8.686;2023-02-26T03:54:30;100180.75;;;0.38;81.42
60099;BME280;62818;49.394;8.686;2023-02-26T03:55:40;100187.31;;;-0.03;81.69
60099;BME280;62818;49.394;8.686;2023-02-26T03:56:47;100174.16;;;0.56;81.14
60099;BME280;62818;49.394;8.686;2023-02-26T03:57:48;100182.47;;;0.72;79.91
60099;BME280;62818;49.394;8.686;2023-02-26T03:58:49;100191.47;;;0.00;80.76
60099;BME280;62818;49.394;8.686;2023-02-26T03:59:50;100189.97;;;-0.15;82.12
60099;BME280;62818;49.394;8.686;2023-02-26T04:01:02;100186.63;;;-0.17;82.74
60099;BME280;62818;49.394;8.686;2023-02-26T04:02:22;100195.25;;;0.07;83.39
60099;BME280;62818;49.394;8.686;2023-02-26T04:03:40;100194.47;;;0.18;81.09
60099;BME280;62818;49.394;8.686;2023-02-26T04:04:55;100197.63;;;-0.25;81.89
60099;BME280;62818;49.394;8.686;2023-02-26T04:06:00;100200.00;;;-0.45;83.77
60099;BME280;62818;49.394;8.686;2023-02-26T04:07:02;100195.97;;;-0.26;84.35
60099;BME280;62818;49.394;8.686;2023-02-26T04:08:02;100189.25;;;0.29;83.11
60099;BME280;62818;49.394;8.686;2023-02-26T04:09:03;100191.22;;;0.60;81.61
60099;BME280;62818;49.394;8.686;2023-02-26T04:10:05;100190.03;;;0.75;80.39
60099;BME280;62818;49.394;8.686;2023-02-26T04:11:10;100199.00;;;0.38;80.42
60099;BME280;62818;49.394;8.686;2023-02-26T04:12:24;100190.78;;;0.66;80.28
60099;BME280;62818;49.394;8.686;2023-02-26T04:13:27;100200.47;;;0.53;78.78
60099;BME280;62818;49.394;8.686;2023-02-26T04:14:27;100198.34;;;-0.23;81.12
60099;BME280;62818;49.394;8.686;2023-02-26T04:15:27;100202.69;;;0.00;81.72
60099;BME280;62818;49.394;8.686;2023-02-26T04:16:28;100200.53;;;-0.06;81.62
60099;BME280;62818;49.394;8.686;2023-02-26T04:17:29;100196.19;;;-0.29;81.93
60099;BME280;62818;49.394;8.686;2023-02-26T04:18:29;100199.09;;;-0.57;84.66
60099;BME280;62818;49.394;8.686;2023-02-26T04:19:30;100199.06;;;-0.44;85.30
60099;BME280;62818;49.394;8.686;2023-02-26T04:20:30;100201.28;;;-0.51;85.09
60099;BME280;62818;49.394;8.686;2023-02-26T04:21:31;100200.56;;;-0.29;84.06
60099;BME280;62818;49.394;8.686;2023-02-26T04:22:31;100208.69;;;-0.10;83.39
60099;BME280;62818;49.394;8.686;2023-02-26T04:23:32;100201.00;;;-0.12;83.24
60099;BME280;62818;49.394;8.686;2023-02-26T04:24:32;100204.50;;;-0.47;83.66
60099;BME280;62818;49.394;8.686;2023-02-26T04:25:33;100208.63;;;0.03;83.67
60099;BME280;62818;49.394;8.686;2023-02-26T04:26:33;100201.72;;;-0.10;82.44
60099;BME280;62818;49.394;8.686;2023-02-26T04:27:34;100205.03;;;0.27;81.47
60099;BME280;62818;49.394;8.686;2023-02-26T04:28:34;100204.97;;;0.62;81.11
60099;BME280;62818;49.394;8.686;2023-02-26T04:29:36;100208.94;;;-0.02;79.74
60099;BME280;62818;49.394;8.686;2023-02-26T04:30:37;100207.03;;;0.24;80.52
60099;BME280;62818;49.394;8.686;2023-02-26T04:31:38;100207.06;;;0.35;80.31
60099;BME280;62818;49.394;8.686;2023-02-26T04:32:38;100214.88;;;-0.11;81.01
60099;BME280;62818;49.394;8.686;2023-02-26T04:33:38;100214.94;;;-0.13;81.48
60099;BME280;62818;49.394;8.686;2023-02-26T04:34:39;100219.13;;;-0.34;83.01
60099;BME280;62818;49.394;8.686;2023-02-26T04:35:39;100224.19;;;-0.56;84.00
60099;BME280;62818;49.394;8.686;2023-02-26T04:36:40;100227.56;;;-0.66;85.39
60099;BME280;62818;49.394;8.686;2023-02-26T04:37:40;100219.59;;;-0.52;85.91
60099;BME280;62818;49.394;8.686;2023-02-26T04:38:41;100226.88;;;-0.21;85.26
60099;BME280;62818;49.394;8.686;2023-02-26T04:39:41;100217.81;;;-0.16;83.99
60099;BME280;62818;49.394;8.686;2023-02-26T04:40:42;100221.34;;;-0.17;84.17
60099;BME280;62818;49.394;8.686;2023-02-26T04:41:42;100227.19;;;0.22;82.98
60099;BME280;62818;49.394;8.686;2023-02-26T04:42:43;100225.56;;;-0.27;82.25
60099;BME280;62818;49.394;8.686;2023-02-26T04:43:43;100237.88;;;-0.29;83.66
60099;BME280;62818;49.394;8.686;2023-02-26T04:44:43;100232.53;;;-0.27;83.19
60099;BME280;62818;49.394;8.686;2023-02-26T04:45:47;100236.31;;;-0.44;84.23
60099;BME280;62818;49.394;8.686;2023-02-26T04:46:48;100234.72;;;0.14;83.63
60099;BME280;62818;49.394;8.686;2023-02-26T04:47:49;100240.84;;;0.02;82.51
60099;BME280;62818;49.394;8.686;2023-02-26T04:48:49;100236.84;;;-0.39;82.49
60099;BME280;62818;49.394;8.686;2023-02-26T04:49:50;100235.53;;;-0.21;83.16
60099;BME280;62818;49.394;8.686;2023-02-26T04:50:50;100236.84;;;-0.39;83.12
60099;BME280;62818;49.394;8.686;2023-02-26T04:51:51;100244.31;;;-0.58;84.17
60099;BME280;62818;49.394;8.686;2023-02-26T04:52:51;100240.34;;;-0.63;85.53
60099;BME280;62818;49.394;8.686;2023-02-26T04:53:52;100245.09;;;-0.94;86.60
60099;BME280;62818;49.394;8.686;2023-02-26T04:54:52;100240.06;;;-0.71;87.81
60099;BME280;62818;49.394;8.686;2023-02-26T04:55:53;100240.41;;;-0.52;87.04
60099;BME280;62818;49.394;8.686;2023-02-26T04:56:53;100241.50;;;-0.08;85.92
60099;BME280;62818;49.394;8.686;2023-02-26T04:57:54;100237.69;;;-0.15;83.83
60099;BME280;62818;49.394;8.686;2023-02-26T04:58:55;100238.53;;;-0.38;84.48
60099;BME280;62818;49.394;8.686;2023-02-26T04:59:55;100237.69;;;-0.38;84.66
60099;BME280;62818;49.394;8.686;2023-02-26T05:00:56;100237.97;;;-0.66;84.99
60099;BME280;62818;49.394;8.686;2023-02-26T05:01:57;100238.59;;;-0.63;84.91
60099;BME280;62818;49.394;8.686;2023-02-26T05:03:00;100237.88;;;-0.29;85.29
60099;BME280;62818;49.394;8.686;2023-02-26T05:04:01;100247.19;;;-0.26;84.66
60099;BME280;62818;49.394;8.686;2023-02-26T05:05:02;100240.91;;;-0.71;85.41
60099;BME280;62818;49.394;8.686;2023-02-26T05:06:03;100238.16;;;-0.57;86.61
60099;BME280;62818;49.394;8.686;2023-02-26T05:07:04;100243.09;;;-0.18;85.58
60099;BME280;62818;49.394;8.686;2023-02-26T05:08:04;100243.75;;;-0.50;84.68
60099;BME280;62818;49.394;8.686;2023-02-26T05:09:05;100248.50;;;-0.32;85.75
60099;BME280;62818;49.394;8.686;2023-02-26T05:10:06;100241.69;;;0.02;84.60
60099;BME280;62818;49.394;8.686;2023-02-26T05:11:09;100248.78;;;0.00;82.99
60099;BME280;62818;49.394;8.686;2023-02-26T05:12:10;100250.44;;;-0.23;82.65
60099;BME280;62818;49.394;8.686;2023-02-26T05:13:10;100244.78;;;-0.40;82.57
60099;BME280;62818;49.394;8.686;2023-02-26T05:14:11;100244.25;;;-0.22;83.19
60099;BME280;62818;49.394;8.686;2023-02-26T05:15:11;100249.41;;;-0.33;83.68
60099;BME280;62818;49.394;8.686;2023-02-26T05:16:12;100249.81;;;-0.26;83.32
60099;BME280;62818;49.394;8.686;2023-02-26T05:17:12;100243.50;;;-0.35;83.95
60099;BME280;62818;49.394;8.686;2023-02-26T05:18:13;100254.59;;;0.04;83.87
60099;BME280;62818;49.394;8.686;2023-02-26T05:19:13;100253.38;;;-0.27;83.23
60099;BME280;62818;49.394;8.686;2023-02-26T05:20:14;100246.09;;;0.13;83.49
60099;BME280;62818;49.394;8.686;2023-02-26T05:21:15;100253.84;;;0.25;82.22
60099;BME280;62818;49.394;8.686;2023-02-26T05:22:15;100255.94;;;0.20;81.67
60099;BME280;62818;49.394;8.686;2023-02-26T05:23:16;100252.97;;;0.14;80.68
60099;BME280;62818;49.394;8.686;2023-02-26T05:24:18;100258.72;;;-0.18;81.04
60099;BME280;62818;49.394;8.686;2023-02-26T05:25:18;100252.47;;;-0.39;83.62
60099;BME280;62818;49.394;8.686;2023-02-26T05:26:19;100262.25;;;-0.79;84.30
60099;BME280;62818;49.394;8.686;2023-02-26T05:27:19;100256.34;;;-0.93;86.18
60099;BME280;62818;49.394;8.686;2023-02-26T05:28:20;100261.69;;;-0.58;86.58
60099;BME280;62818;49.394;8.686;2023-02-26T05:29:20;100255.13;;;-0.28;85.73
60099;BME280;62818;49.394;8.686;2023-02-26T05:30:21;100261.50;;;0.16;84.14
60099;BME280;62818;49.394;8.686;2023-02-26T05:31:21;100265.22;;;-0.47;83.97
60099;BME280;62818;49.394;8.686;2023-02-26T05:32:22;100263.78;;;-0.04;84.16
60099;BME280;62818;49.394;8.686;2023-02-26T05:33:22;100270.34;;;0.02;82.57
60099;BME280;62818;49.394;8.686;2023-02-26T05:34:23;100265.28;;;-0.12;82.25
60099;BME280;62818;49.394;8.686;2023-02-26T05:35:23;100272.78;;;-0.80;83.87
60099;BME280;62818;49.394;8.686;2023-02-26T05:36:24;100265.88;;;-0.81;85.43
60099;BME280;62818;49.394;8.686;2023-02-26T05:37:24;100269.09;;;-0.65;85.65
60099;BME280;62818;49.394;8.686;2023-02-26T05:38:25;100272.78;;;-0.44;85.17
60099;BME280;62818;49.394;8.686;2023-02-26T05:39:25;100277.97;;;-0.08;84.36
60099;BME280;62818;49.394;8.686;2023-02-26T05:40:26;100278.97;;;0.03;82.79
60099;BME280;62818;49.394;8.686;2023-02-26T05:41:26;100275.97;;;-0.28;82.45
60099;BME280;62818;49.394;8.686;2023-02-26T05:42:27;100286.94;;;-0.84;84.42
60099;BME280;62818;49.394;8.686;2023-02-26T05:43:27;100275.28;;;-1.04;86.85
60099;BME280;62818;49.394;8.686;2023-02-26T05:44:28;100275.69;;;-0.48;86.23
60099;BME280;62818;49.394;8.686;2023-02-26T05:45:29;100280.31;;;-0.16;84.78
60099;BME280;62818;49.394;8.686;2023-02-26T05:46:29;100282.72;;;-0.49;83.24
60099;BME280;62818;49.394;8.686;2023-02-26T05:47:29;100282.22;;;-0.79;84.76
60099;BME280;62818;49.394;8.686;2023-02-26T05:48:30;100287.13;;;-0.87;85.56
60099;BME280;62818;49.394;8.686;2023-02-26T05:49:31;100285.06;;;-0.46;86.02
60099;BME280;62818;49.394;8.686;2023-02-26T05:50:31;100297.13;;;0.04;83.92
60099;BME280;62818;49.394;8.686;2023-02-26T05:51:32;100286.63;;;0.17;82.13
60099;BME280;62818;49.394;8.686;2023-02-26T05:52:32;100285.63;;;-0.53;82.83
60099;BME280;62818;49.394;8.686;2023-02-26T05:53:33;100292.13;;;-0.97;84.89
60099;BME280;62818;49.394;8.686;2023-02-26T05:54:34;100289.34;;;-0.45;84.92
60099;BME280;62818;49.394;8.686;2023-02-26T05:55:34;100289.50;;;0.01;82.66
60099;BME280;62818;49.394;8.686;2023-02-26T05:56:35;100282.22;;;-0.30;83.09
60099;BME280;62818;49.394;8.686;2023-02-26T05:57:35;100293.75;;;-0.58;82.47
60099;BME280;62818;49.394;8.686;2023-02-26T05:58:36;100290.97;;;-0.67;83.41
60099;BME280;62818;49.394;8.686;2023-02-26T05:59:37;100291.63;;;-0.40;83.49
60099;BME280;62818;49.394;8.686;2023-02-26T06:00:38;100301.69;;;0.00;82.39
60099;BME280;62818;49.394;8.686;2023-02-26T06:01:38;100305.03;;;0.26;80.84
60099;BME280;62818;49.394;8.686;2023-02-26T06:02:39;100303.22;;;-0.44;80.70
60099;BME280;62818;49.394;8.686;2023-02-26T06:03:40;100303.06;;;-0.30;81.87
60099;BME280;62818;49.394;8.686;2023-02-26T06:04:43;100304.94;;;-0.32;81.84
60099;BME280;62818;49.394;8.686;2023-02-26T06:05:43;100311.25;;;-0.60;82.45
60099;BME280;62818;49.394;8.686;2023-02-26T06:06:44;100309.81;;;-0.64;83.14
60099;BME280;62818;49.394;8.686;2023-02-26T06:07:45;100305.50;;;-0.40;82.95
60099;BME280;62818;49.394;8.686;2023-02-26T06:08:45;100305.53;;;-0.65;82.88
60099;BME280;62818;49.394;8.686;2023-02-26T06:09:46;100309.50;;;-0.85;84.49
60099;BME280;62818;49.394;8.686;2023-02-26T06:10:49;100315.84;;;-0.76;85.12
60099;BME280;62818;49.394;8.686;2023-02-26T06:11:51;100313.56;;;-1.18;86.19
60099;BME280;62818;49.394;8.686;2023-02-26T06:12:51;100319.38;;;-1.27;87.12
60099;BME280;62818;49.394;8.686;2023-02-26T06:13:52;100327.09;;;-1.13;87.97
60099;BME280;62818;49.394;8.686;2023-02-26T06:14:52;100320.75;;;-0.84;87.68
60099;BME280;62818;49.394;8.686;2023-02-26T06:15:53;100324.75;;;-0.55;86.27
60099;BME280;62818;49.394;8.686;2023-02-26T06:16:53;100315.38;;;-0.45;85.97
60099;BME280;62818;49.394;8.686;2023-02-26T06:17:54;100326.09;;;-0.01;85.01
60099;BME280;62818;49.394;8.686;2023-02-26T06:18:54;100327.66;;;-0.34;83.23
60099;BME280;62818;49.394;8.686;2023-02-26T06:19:55;100326.66;;;-0.57;84.20
60099;BME280;62818;49.394;8.686;2023-02-26T06:20:55;100331.19;;;-0.23;83.97
60099;BME280;62818;49.394;8.686;2023-02-26T06:21:56;100331.53;;;-0.04;83.24
60099;BME280;62818;49.394;8.686;2023-02-26T06:22:57;100330.66;;;-0.28;83.04
60099;BME280;62818;49.394;8.686;2023-02-26T06:23:57;100342.41;;;-0.71;84.66
60099;BME280;62818;49.394;8.686;2023-02-26T06:24:58;100335.19;;;-0.55;84.90
60099;BME280;62818;49.394;8.686;2023-02-26T06:25:58;100340.00;;;-0.74;85.04
60099;BME280;62818;49.394;8.686;2023-02-26T06:26:59;100334.34;;;-0.43;86.12
60099;BME280;62818;49.394;8.686;2023-02-26T06:27:59;100337.03;;;-0.32;85.79
60099;BME280;62818;49.394;8.686;2023-02-26T06:29:00;100338.19;;;-0.48;84.34
60099;BME280;62818;49.394;8.686;2023-02-26T06:30:01;100340.38;;;-0.55;84.67
60099;BME280;62818;49.394;8.686;2023-02-26T06:31:03;100343.97;;;-0.68;85.50
60099;BME280;62818;49.394;8.686;2023-02-26T06:32:04;100351.34;;;-0.88;87.11
60099;BME280;62818;49.394;8.686;2023-02-26T06:33:05;100352.06;;;-0.98;87.59
60099;BME280;62818;49.394;8.686;2023-02-26T06:34:05;100355.38;;;-0.84;88.01